createdAt,value
2016-08-05T00:00:42.137Z,0
2016-08-05T00:01:42.254Z,0
2016-08-05T00:02:42.127Z,0
2016-08-05T00:03:42.144Z,0
2016-08-05T00:04:42.149Z,0
2016-08-05T00:05:42.121Z,0
2016-08-05T00:06:42.177Z,0
2016-08-05T00:07:42.177Z,0
2016-08-05T00:08:42.167Z,0
2016-08-05T00:09:42.193Z,0
2016-08-05T00:10:42.214Z,0
2016-08-05T00:11:42.204Z,0
2016-08-05T00:12:42.206Z,0
2016-08-05T00:13:42.194Z,0
2016-08-05T00:14:42.219Z,0
2016-08-05T00:15:42.215Z,0
2016-08-05T00:16:42.267Z,0
2016-08-05T00:17:42.250Z,0
2016-08-05T00:18:42.246Z,0
2016-08-05T00:19:42.287Z,0
2016-08-05T00:20:42.297Z,0
2016-08-05T00:21:42.306Z,0
2016-08-05T00:22:42.290Z,0
2016-08-05T00:23:42.302Z,0
2016-08-05T00:24:42.312Z,0
2016-08-05T00:25:42.305Z,0
2016-08-05T00:26:42.307Z,0
2016-08-05T00:27:42.345Z,0
2016-08-05T00:28:42.334Z,0
2016-08-05T00:29:42.333Z,0
2016-08-05T00:30:42.358Z,0
2016-08-05T00:31:42.383Z,0
2016-08-05T00:32:42.387Z,0
2016-08-05T00:33:42.380Z,0
2016-08-05T00:34:42.395Z,0
2016-08-05T00:35:42.409Z,0
2016-08-05T00:36:42.408Z,0
2016-08-05T00:37:42.406Z,0
2016-08-05T00:38:42.425Z,0
2016-08-05T00:39:43.095Z,0
2016-08-05T00:40:42.417Z,0
2016-08-05T00:41:42.424Z,0
2016-08-05T00:42:42.439Z,0
2016-08-05T00:43:42.458Z,0
2016-08-05T00:44:42.452Z,0
2016-08-05T00:45:42.460Z,0
2016-08-05T00:46:42.478Z,0
2016-08-05T00:47:42.504Z,0
2016-08-05T00:48:43.175Z,0
2016-08-05T00:49:42.531Z,0
2016-08-05T00:50:42.509Z,0
2016-08-05T00:51:42.534Z,0
2016-08-05T00:52:42.535Z,0
2016-08-05T00:53:43.251Z,0
2016-08-05T00:54:42.526Z,0
2016-08-05T00:55:42.553Z,0
2016-08-05T00:56:42.559Z,0
2016-08-05T00:57:42.551Z,0
2016-08-05T00:58:42.575Z,0
2016-08-05T00:59:42.600Z,0
2016-08-05T01:00:42.575Z,0
2016-08-05T01:01:42.636Z,0
2016-08-05T01:02:42.593Z,0
2016-08-05T01:03:42.606Z,0
2016-08-05T01:04:42.616Z,0
2016-08-05T01:05:42.617Z,0
2016-08-05T01:06:42.652Z,0
2016-08-05T01:07:43.365Z,0
2016-08-05T01:08:42.673Z,0
2016-08-05T01:09:42.649Z,0
2016-08-05T01:10:42.660Z,0
2016-08-05T01:11:42.665Z,0
2016-08-05T01:12:42.688Z,0
2016-08-05T01:13:42.673Z,0
2016-08-05T01:14:42.683Z,0
2016-08-05T01:15:42.726Z,0
2016-08-05T01:16:42.723Z,0
2016-08-05T01:17:42.715Z,0
2016-08-05T01:18:42.716Z,0
2016-08-05T01:19:42.737Z,0
2016-08-05T01:20:42.745Z,0
2016-08-05T01:21:42.755Z,0
2016-08-05T01:22:42.751Z,0
2016-08-05T01:23:42.778Z,0
2016-08-05T01:24:42.779Z,0
2016-08-05T01:25:42.771Z,0
2016-08-05T01:26:42.767Z,0
2016-08-05T01:27:42.824Z,0
2016-08-05T01:28:42.819Z,0
2016-08-05T01:29:42.828Z,0
2016-08-05T01:30:42.863Z,0
2016-08-05T01:31:42.839Z,0
2016-08-05T01:32:42.812Z,0
2016-08-05T01:33:42.854Z,0
2016-08-05T01:34:42.843Z,0
2016-08-05T01:35:42.839Z,0
2016-08-05T01:36:42.891Z,0
2016-08-05T01:37:42.877Z,0
2016-08-05T01:38:42.862Z,0
2016-08-05T01:39:43.608Z,0
2016-08-05T01:40:42.914Z,0
2016-08-05T01:41:42.890Z,0
2016-08-05T01:42:42.939Z,0
2016-08-05T01:43:42.919Z,0
2016-08-05T01:44:42.955Z,0
2016-08-05T01:45:42.965Z,0
2016-08-05T01:46:42.927Z,0
2016-08-05T01:47:42.965Z,0
2016-08-05T01:48:42.991Z,0
2016-08-05T01:49:42.981Z,0
2016-08-05T01:50:42.978Z,0
2016-08-05T01:51:42.990Z,0
2016-08-05T01:52:42.994Z,0
2016-08-05T01:53:43.023Z,0
2016-08-05T01:54:43.015Z,0
2016-08-05T01:55:43.041Z,0
2016-08-05T01:56:43.054Z,0
2016-08-05T01:57:43.061Z,0
2016-08-05T01:58:43.050Z,0
2016-08-05T01:59:43.047Z,0
2016-08-05T02:00:43.058Z,0
2016-08-05T02:01:43.053Z,0
2016-08-05T02:02:43.074Z,0
2016-08-05T02:03:43.110Z,0
2016-08-05T02:04:43.108Z,0
2016-08-05T02:05:43.104Z,0
2016-08-05T02:06:43.108Z,0
2016-08-05T02:07:43.134Z,0
2016-08-05T02:08:43.118Z,0
2016-08-05T02:09:43.149Z,0
2016-08-05T02:10:43.128Z,0
2016-08-05T02:11:43.143Z,0
2016-08-05T02:12:43.160Z,0
2016-08-05T02:13:43.153Z,0
2016-08-05T02:14:43.158Z,0
2016-08-05T02:15:43.886Z,0
2016-08-05T02:16:43.193Z,0
2016-08-05T02:17:43.204Z,0
2016-08-05T02:18:43.194Z,0
2016-08-05T02:19:43.213Z,0
2016-08-05T02:20:43.204Z,0
2016-08-05T02:21:43.234Z,0
2016-08-05T02:22:43.213Z,0
2016-08-05T02:23:43.220Z,0
2016-08-05T02:24:43.234Z,0
2016-08-05T02:25:43.274Z,0
2016-08-05T02:26:43.252Z,0
2016-08-05T02:27:43.259Z,0
2016-08-05T02:28:43.274Z,0
2016-08-05T02:29:43.281Z,0
2016-08-05T02:30:43.297Z,0
2016-08-05T02:31:43.286Z,0
2016-08-05T02:32:43.297Z,0
2016-08-05T02:33:43.312Z,0
2016-08-05T02:34:43.334Z,0
2016-08-05T02:35:43.332Z,0
2016-08-05T02:36:43.341Z,0
2016-08-05T02:37:43.353Z,0
2016-08-05T02:38:43.346Z,0
2016-08-05T02:39:43.370Z,0
2016-08-05T02:40:43.393Z,0
2016-08-05T02:41:43.388Z,0
2016-08-05T02:42:43.383Z,0
2016-08-05T02:43:43.384Z,0
2016-08-05T02:44:43.407Z,0
2016-08-05T02:45:43.387Z,0
2016-08-05T02:46:43.404Z,0
2016-08-05T02:47:43.455Z,0
2016-08-05T02:48:43.433Z,0
2016-08-05T02:49:43.433Z,0
2016-08-05T02:50:43.434Z,0
2016-08-05T02:51:43.470Z,0
2016-08-05T02:52:43.461Z,0
2016-08-05T02:53:43.494Z,0
2016-08-05T02:54:43.467Z,0
2016-08-05T02:55:43.478Z,0
2016-08-05T02:56:43.498Z,0
2016-08-05T02:57:43.491Z,0
2016-08-05T02:58:43.494Z,0
2016-08-05T02:59:43.518Z,0
2016-08-05T03:00:43.517Z,0
2016-08-05T03:01:43.544Z,0
2016-08-05T03:02:43.699Z,0
2016-08-05T03:03:43.546Z,0
2016-08-05T03:04:43.573Z,0
2016-08-05T03:05:43.570Z,0
2016-08-05T03:06:43.576Z,0
2016-08-05T03:07:43.568Z,0
2016-08-05T03:08:43.604Z,0
2016-08-05T03:09:43.583Z,0
2016-08-05T03:10:43.615Z,0
2016-08-05T03:11:43.613Z,0
2016-08-05T03:12:43.610Z,0
2016-08-05T03:13:43.635Z,0
2016-08-05T03:14:43.638Z,0
2016-08-05T03:15:43.642Z,0
2016-08-05T03:16:43.630Z,0
2016-08-05T03:17:43.658Z,0
2016-08-05T03:18:43.655Z,0
2016-08-05T03:19:43.698Z,0
2016-08-05T03:20:43.713Z,0
2016-08-05T03:21:43.683Z,0
2016-08-05T03:22:43.686Z,0
2016-08-05T03:23:43.733Z,0
2016-08-05T03:24:43.714Z,0
2016-08-05T03:25:43.707Z,0
2016-08-05T03:26:43.750Z,0
2016-08-05T03:27:43.729Z,0
2016-08-05T03:28:43.770Z,0
2016-08-05T03:29:43.735Z,0
2016-08-05T03:30:43.751Z,0
2016-08-05T03:31:43.757Z,0
2016-08-05T03:32:43.789Z,0
2016-08-05T03:33:43.800Z,0
2016-08-05T03:34:43.778Z,0
2016-08-05T03:35:44.490Z,0
2016-08-05T03:36:43.830Z,0
2016-08-05T03:37:43.808Z,0
2016-08-05T03:38:43.821Z,0
2016-08-05T03:39:43.837Z,0
2016-08-05T03:40:43.847Z,0
2016-08-05T03:41:43.838Z,0
2016-08-05T03:42:43.836Z,0
2016-08-05T03:43:43.870Z,0
2016-08-05T03:44:43.871Z,0
2016-08-05T03:45:43.853Z,0
2016-08-05T03:46:43.889Z,0
2016-08-05T03:47:43.900Z,0
2016-08-05T03:48:43.891Z,0
2016-08-05T03:49:43.906Z,0
2016-08-05T03:50:43.909Z,0
2016-08-05T03:51:43.915Z,0
2016-08-05T03:52:43.946Z,0
2016-08-05T03:53:43.945Z,0
2016-08-05T03:54:43.933Z,0
2016-08-05T03:56:43.963Z,0
2016-08-05T03:57:43.957Z,0
2016-08-05T03:58:43.962Z,0
2016-08-05T03:59:43.955Z,0
2016-08-05T04:00:43.979Z,0
2016-08-05T04:01:43.998Z,0
2016-08-05T04:02:44.039Z,0
2016-08-05T04:03:43.995Z,0
2016-08-05T04:04:43.998Z,0
2016-08-05T04:05:44.045Z,0
2016-08-05T04:06:44.034Z,0
2016-08-05T04:07:44.037Z,0
2016-08-05T04:08:44.033Z,0
2016-08-05T04:09:44.050Z,0
2016-08-05T04:11:44.087Z,0
2016-08-05T04:12:44.097Z,0
2016-08-05T04:13:44.096Z,0
2016-08-05T04:14:44.103Z,0
2016-08-05T04:15:44.120Z,0
2016-08-05T04:16:44.115Z,0
2016-08-05T04:17:44.102Z,0
2016-08-05T04:18:44.145Z,0
2016-08-05T04:19:44.128Z,0
2016-08-05T04:20:44.136Z,0
2016-08-05T04:21:44.137Z,0
2016-08-05T04:22:44.130Z,0
2016-08-05T04:23:44.161Z,0
2016-08-05T04:24:44.191Z,0
2016-08-05T04:25:44.178Z,0
2016-08-05T04:26:44.173Z,0
2016-08-05T04:27:44.221Z,0
2016-08-05T04:28:44.166Z,0
2016-08-05T04:29:44.190Z,0
2016-08-05T04:30:44.223Z,0
2016-08-05T04:31:44.222Z,0
2016-08-05T04:32:44.221Z,0
2016-08-05T04:33:44.237Z,0
2016-08-05T04:34:44.253Z,0
2016-08-05T04:35:44.278Z,0
2016-08-05T04:36:44.278Z,0
2016-08-05T04:37:44.254Z,0
2016-08-05T04:38:44.274Z,0
2016-08-05T04:39:44.278Z,0
2016-08-05T04:40:44.316Z,0
2016-08-05T04:41:44.309Z,0
2016-08-05T04:42:44.333Z,0
2016-08-05T04:43:44.303Z,0
2016-08-05T04:44:44.306Z,0
2016-08-05T04:45:44.341Z,0
2016-08-05T04:46:44.316Z,0
2016-08-05T04:47:44.338Z,0
2016-08-05T04:48:44.368Z,0
2016-08-05T04:49:44.351Z,0
2016-08-05T04:50:44.384Z,0
2016-08-05T04:51:44.396Z,0
2016-08-05T04:52:44.395Z,0
2016-08-05T04:53:44.399Z,0
2016-08-05T04:54:44.387Z,0
2016-08-05T04:55:44.395Z,0
2016-08-05T04:56:44.423Z,0
2016-08-05T04:57:44.424Z,0
2016-08-05T04:58:44.421Z,0
2016-08-05T04:59:44.405Z,0
2016-08-05T05:00:44.468Z,0
2016-08-05T05:01:44.456Z,0
2016-08-05T05:02:44.654Z,0
2016-08-05T05:03:44.459Z,0
2016-08-05T05:04:44.447Z,0
2016-08-05T05:05:44.505Z,0
2016-08-05T05:06:44.477Z,0
2016-08-05T05:07:44.515Z,0
2016-08-05T05:08:44.495Z,0
2016-08-05T05:09:44.497Z,0
2016-08-05T05:10:44.523Z,0
2016-08-05T05:11:44.531Z,0
2016-08-05T05:12:44.509Z,0
2016-08-05T05:13:44.528Z,0
2016-08-05T05:14:44.549Z,0
2016-08-05T05:15:44.574Z,0
2016-08-05T05:16:44.568Z,0
2016-08-05T05:17:44.576Z,0
2016-08-05T05:18:44.577Z,0
2016-08-05T05:19:44.588Z,0
2016-08-05T05:20:44.584Z,0
2016-08-05T05:21:44.596Z,4
2016-08-05T05:22:44.619Z,4
2016-08-05T05:23:44.604Z,4
2016-08-05T05:24:44.609Z,4
2016-08-05T05:25:44.649Z,4
2016-08-05T05:26:44.626Z,4
2016-08-05T05:27:44.635Z,4
2016-08-05T05:28:44.643Z,4
2016-08-05T05:29:45.376Z,4
2016-08-05T05:30:44.684Z,4
2016-08-05T05:31:44.657Z,4
2016-08-05T05:32:44.672Z,4
2016-08-05T05:33:44.696Z,4
2016-08-05T05:34:44.676Z,4
2016-08-05T05:35:44.707Z,4
2016-08-05T05:36:44.716Z,4
2016-08-05T05:37:44.713Z,0
2016-08-05T05:38:44.747Z,0
2016-08-05T05:39:44.763Z,0
2016-08-05T05:40:44.727Z,0
2016-08-05T05:41:44.765Z,0
2016-08-05T05:42:44.767Z,4
2016-08-05T05:43:44.768Z,4
2016-08-05T05:44:44.758Z,4
2016-08-05T05:45:44.765Z,4
2016-08-05T05:46:44.802Z,4
2016-08-05T05:47:44.785Z,4
2016-08-05T05:48:44.795Z,4
2016-08-05T05:49:44.823Z,4
2016-08-05T05:50:44.815Z,4
2016-08-05T05:51:44.835Z,4
2016-08-05T05:52:44.828Z,4
2016-08-05T05:53:44.854Z,4
2016-08-05T05:54:44.874Z,4
2016-08-05T05:55:44.869Z,4
2016-08-05T05:56:45.566Z,4
2016-08-05T05:57:44.883Z,4
2016-08-05T05:58:44.891Z,4
2016-08-05T05:59:44.898Z,4
2016-08-05T06:00:44.921Z,4
2016-08-05T06:01:44.913Z,4
2016-08-05T06:02:44.954Z,4
2016-08-05T06:03:44.912Z,4
2016-08-05T06:04:44.942Z,4
2016-08-05T06:05:44.958Z,4
2016-08-05T06:06:44.963Z,4
2016-08-05T06:07:44.926Z,4
2016-08-05T06:08:44.986Z,4
2016-08-05T06:09:44.972Z,4
2016-08-05T06:10:44.971Z,0
2016-08-05T06:11:44.981Z,0
2016-08-05T06:12:44.974Z,4
2016-08-05T06:13:44.991Z,4
2016-08-05T06:14:44.993Z,4
2016-08-05T06:15:44.997Z,4
2016-08-05T06:16:45.024Z,4
2016-08-05T06:17:44.995Z,4
2016-08-05T06:18:45.019Z,4
2016-08-05T06:19:45.015Z,4
2016-08-05T06:20:45.065Z,4
2016-08-05T06:21:45.064Z,4
2016-08-05T06:22:45.077Z,4
2016-08-05T06:23:45.085Z,4
2016-08-05T06:24:45.061Z,4
2016-08-05T06:25:45.075Z,4
2016-08-05T06:26:45.098Z,4
2016-08-05T06:27:45.109Z,4
2016-08-05T06:28:45.110Z,4
2016-08-05T06:29:45.834Z,4
2016-08-05T06:30:45.132Z,4
2016-08-05T06:31:45.110Z,4
2016-08-05T06:32:45.158Z,4
2016-08-05T06:33:45.134Z,4
2016-08-05T06:34:45.145Z,4
2016-08-05T06:35:45.146Z,4
2016-08-05T06:36:45.192Z,4
2016-08-05T06:37:45.143Z,4
2016-08-05T06:38:45.167Z,4
2016-08-05T06:39:45.191Z,4
2016-08-05T06:40:45.212Z,4
2016-08-05T06:41:45.211Z,4
2016-08-05T06:42:45.231Z,4
2016-08-05T06:43:45.216Z,4
2016-08-05T06:44:45.234Z,4
2016-08-05T06:45:45.242Z,4
2016-08-05T06:46:45.227Z,4
2016-08-05T06:47:45.266Z,4
2016-08-05T06:48:45.268Z,4
2016-08-05T06:49:45.270Z,4
2016-08-05T06:50:45.960Z,8
2016-08-05T06:51:45.298Z,4
2016-08-05T06:52:45.298Z,4
2016-08-05T06:53:45.300Z,4
2016-08-05T06:54:45.288Z,4
2016-08-05T06:55:45.293Z,4
2016-08-05T06:56:45.325Z,8
2016-08-05T06:57:45.342Z,8
2016-08-05T06:58:45.305Z,8
2016-08-05T06:59:45.337Z,8
2016-08-05T07:00:45.340Z,4
2016-08-05T07:01:45.339Z,4
2016-08-05T07:02:45.399Z,4
2016-08-05T07:03:45.375Z,4
2016-08-05T07:04:45.402Z,4
2016-08-05T07:05:45.373Z,8
2016-08-05T07:06:45.380Z,8
2016-08-05T07:07:45.387Z,8
2016-08-05T07:08:45.410Z,8
2016-08-05T07:09:45.421Z,8
2016-08-05T07:10:45.412Z,8
2016-08-05T07:11:45.433Z,8
2016-08-05T07:12:45.429Z,8
2016-08-05T07:13:45.440Z,12
2016-08-05T07:14:45.435Z,8
2016-08-05T07:15:45.450Z,8
2016-08-05T07:16:45.492Z,8
2016-08-05T07:17:45.494Z,12
2016-08-05T07:18:45.469Z,12
2016-08-05T07:19:45.499Z,8
2016-08-05T07:20:45.501Z,8
2016-08-05T07:21:45.487Z,8
2016-08-05T07:22:45.522Z,8
2016-08-05T07:23:45.509Z,8
2016-08-05T07:24:45.536Z,4
2016-08-05T07:25:45.520Z,8
2016-08-05T07:26:45.556Z,8
2016-08-05T07:27:45.550Z,8
2016-08-05T07:28:45.567Z,4
2016-08-05T07:29:45.563Z,4
2016-08-05T07:30:45.594Z,8
2016-08-05T07:31:45.573Z,8
2016-08-05T07:32:45.590Z,8
2016-08-05T07:33:45.584Z,4
2016-08-05T07:34:45.615Z,4
2016-08-05T07:35:45.611Z,4
2016-08-05T07:36:45.652Z,4
2016-08-05T07:37:45.627Z,4
2016-08-05T07:38:45.649Z,4
2016-08-05T07:39:45.616Z,4
2016-08-05T07:40:45.671Z,4
2016-08-05T07:41:45.681Z,8
2016-08-05T07:42:45.655Z,8
2016-08-05T07:43:45.683Z,8
2016-08-05T07:44:45.678Z,8
2016-08-05T07:45:45.696Z,8
2016-08-05T07:46:45.689Z,8
2016-08-05T07:47:45.695Z,8
2016-08-05T07:48:45.708Z,8
2016-08-05T07:49:45.725Z,8
2016-08-05T07:50:45.703Z,8
2016-08-05T07:51:45.724Z,8
2016-08-05T07:52:45.739Z,8
2016-08-05T07:53:45.731Z,8
2016-08-05T07:54:45.755Z,8
2016-08-05T07:55:45.764Z,8
2016-08-05T07:56:45.771Z,8
2016-08-05T07:57:45.781Z,8
2016-08-05T07:58:45.786Z,8
2016-08-05T07:59:45.809Z,8
2016-08-05T08:00:45.792Z,8
2016-08-05T08:01:45.782Z,4
2016-08-05T08:02:45.859Z,4
2016-08-05T08:03:45.813Z,4
2016-08-05T08:04:45.816Z,8
2016-08-05T08:05:45.846Z,4
2016-08-05T08:06:45.842Z,8
2016-08-05T08:07:45.840Z,4
2016-08-05T08:08:45.852Z,4
2016-08-05T08:09:45.849Z,4
2016-08-05T08:10:45.855Z,4
2016-08-05T08:11:45.882Z,8
2016-08-05T08:12:45.903Z,4
2016-08-05T08:13:45.902Z,8
2016-08-05T08:14:45.906Z,8
2016-08-05T08:15:45.912Z,12
2016-08-05T08:16:45.937Z,8
2016-08-05T08:17:45.940Z,8
2016-08-05T08:18:54.656Z,8
2016-08-05T08:19:46.653Z,4
2016-08-05T08:20:46.025Z,8
2016-08-05T08:21:45.958Z,4
2016-08-05T08:22:45.967Z,4
2016-08-05T08:23:45.970Z,4
2016-08-05T08:24:45.974Z,4
2016-08-05T08:25:46.028Z,4
2016-08-05T08:26:45.993Z,4
2016-08-05T08:27:46.011Z,8
2016-08-05T08:28:46.028Z,4
2016-08-05T08:29:46.010Z,4
2016-08-05T08:30:46.033Z,4
2016-08-05T08:31:46.050Z,8
2016-08-05T08:32:46.062Z,4
2016-08-05T08:33:46.031Z,8
2016-08-05T08:34:46.070Z,4
2016-08-05T08:35:46.097Z,4
2016-08-05T08:36:46.103Z,4
2016-08-05T08:37:46.083Z,4
2016-08-05T08:38:46.092Z,4
2016-08-05T08:39:46.104Z,4
2016-08-05T08:40:46.100Z,12
2016-08-05T08:41:46.104Z,20
2016-08-05T08:42:46.132Z,20
2016-08-05T08:43:46.143Z,20
2016-08-05T08:44:46.143Z,20
2016-08-05T08:45:46.139Z,24
2016-08-05T08:46:46.189Z,20
2016-08-05T08:47:46.187Z,24
2016-08-05T08:48:46.177Z,20
2016-08-05T08:49:46.189Z,24
2016-08-05T08:50:46.211Z,24
2016-08-05T08:51:46.217Z,24
2016-08-05T08:52:46.221Z,20
2016-08-05T08:53:46.215Z,20
2016-08-05T08:54:46.255Z,20
2016-08-05T08:55:46.230Z,20
2016-08-05T08:56:46.237Z,16
2016-08-05T08:57:46.236Z,20
2016-08-05T08:58:46.242Z,20
2016-08-05T08:59:46.261Z,20
2016-08-05T09:00:46.297Z,20
2016-08-05T09:01:46.305Z,20
2016-08-05T09:02:46.481Z,20
2016-08-05T09:03:46.293Z,20
2016-08-05T09:04:46.308Z,20
2016-08-05T09:05:46.297Z,20
2016-08-05T09:06:46.342Z,16
2016-08-05T09:07:46.334Z,20
2016-08-05T09:08:46.359Z,20
2016-08-05T09:09:46.341Z,20
2016-08-05T09:10:46.367Z,24
2016-08-05T09:11:46.381Z,24
2016-08-05T09:12:46.367Z,20
2016-08-05T09:13:46.392Z,20
2016-08-05T09:14:46.423Z,20
2016-08-05T09:15:46.393Z,20
2016-08-05T09:16:46.388Z,20
2016-08-05T09:17:46.428Z,20
2016-08-05T09:18:46.440Z,20
2016-08-05T09:19:46.434Z,16
2016-08-05T09:20:46.448Z,16
2016-08-05T09:21:46.420Z,20
2016-08-05T09:22:46.449Z,20
2016-08-05T09:23:46.466Z,20
2016-08-05T09:24:46.462Z,20
2016-08-05T09:25:46.486Z,20
2016-08-05T09:26:46.498Z,16
2016-08-05T09:27:46.473Z,20
2016-08-05T09:28:46.483Z,16
2016-08-05T09:29:46.550Z,16
2016-08-05T09:30:46.535Z,16
2016-08-05T09:31:46.571Z,16
2016-08-05T09:32:46.543Z,16
2016-08-05T09:33:47.243Z,20
2016-08-05T09:34:46.561Z,16
2016-08-05T09:35:46.583Z,20
2016-08-05T09:36:46.587Z,20
2016-08-05T09:37:46.593Z,16
2016-08-05T09:38:46.613Z,16
2016-08-05T09:39:46.596Z,16
2016-08-05T09:40:46.596Z,16
2016-08-05T09:41:46.606Z,16
2016-08-05T09:42:46.652Z,16
2016-08-05T09:43:46.647Z,16
2016-08-05T09:44:46.650Z,16
2016-08-05T09:45:46.668Z,16
2016-08-05T09:46:46.655Z,20
2016-08-05T09:47:46.678Z,20
2016-08-05T09:48:46.699Z,20
2016-08-05T09:49:46.673Z,20
2016-08-05T09:50:46.678Z,20
2016-08-05T09:51:46.701Z,20
2016-08-05T09:52:46.731Z,24
2016-08-05T09:53:46.721Z,20
2016-08-05T09:54:46.751Z,20
2016-08-05T09:55:46.723Z,24
2016-08-05T09:56:46.723Z,24
2016-08-05T09:57:46.749Z,24
2016-08-05T09:58:46.771Z,24
2016-08-05T09:59:46.788Z,24
2016-08-05T10:00:46.794Z,24
2016-08-05T10:01:46.811Z,24
2016-08-05T10:02:46.807Z,24
2016-08-05T10:03:46.803Z,24
2016-08-05T10:04:46.811Z,24
2016-08-05T10:05:46.817Z,20
2016-08-05T10:06:46.808Z,24
2016-08-05T10:07:46.843Z,24
2016-08-05T10:08:46.862Z,24
2016-08-05T10:09:46.842Z,24
2016-08-05T10:10:46.881Z,24
2016-08-05T10:11:46.875Z,20
2016-08-05T10:12:46.890Z,20
2016-08-05T10:13:46.912Z,20
2016-08-05T10:14:46.879Z,20
2016-08-05T10:15:46.910Z,20
2016-08-05T10:16:47.603Z,20
2016-08-05T10:17:46.940Z,24
2016-08-05T10:18:46.946Z,24
2016-08-05T10:19:46.950Z,24
2016-08-05T10:20:46.954Z,24
2016-08-05T10:21:46.983Z,24
2016-08-05T10:22:46.965Z,24
2016-08-05T10:23:47.003Z,24
2016-08-05T10:24:47.013Z,24
2016-08-05T10:25:47.026Z,24
2016-08-05T10:26:47.006Z,24
2016-08-05T10:27:47.010Z,24
2016-08-05T10:28:47.034Z,28
2016-08-05T10:29:47.016Z,28
2016-08-05T10:30:47.045Z,24
2016-08-05T10:31:47.061Z,24
2016-08-05T10:32:47.090Z,24
2016-08-05T10:33:47.055Z,24
2016-08-05T10:34:47.084Z,24
2016-08-05T10:35:47.080Z,24
2016-08-05T10:36:47.076Z,24
2016-08-05T10:37:47.081Z,24
2016-08-05T10:38:47.109Z,24
2016-08-05T10:39:47.109Z,28
2016-08-05T10:40:47.114Z,24
2016-08-05T10:41:47.135Z,24
2016-08-05T10:42:47.159Z,28
2016-08-05T10:43:47.166Z,28
2016-08-05T10:44:47.170Z,28
2016-08-05T10:45:47.206Z,28
2016-08-05T10:46:47.163Z,28
2016-08-05T10:47:47.177Z,28
2016-08-05T10:48:47.200Z,28
2016-08-05T10:49:47.190Z,28
2016-08-05T10:50:47.190Z,24
2016-08-05T10:51:47.233Z,24
2016-08-05T10:52:47.243Z,24
2016-08-05T10:53:47.231Z,20
2016-08-05T10:54:47.249Z,20
2016-08-05T10:55:47.278Z,20
2016-08-05T10:57:47.987Z,20
2016-08-05T10:58:47.263Z,20
2016-08-05T10:59:47.293Z,20
2016-08-05T11:00:47.291Z,16
2016-08-05T11:01:47.313Z,20
2016-08-05T11:02:47.340Z,16
2016-08-05T11:03:47.330Z,20
2016-08-05T11:04:47.371Z,20
2016-08-05T11:05:47.350Z,24
2016-08-05T11:06:47.374Z,24
2016-08-05T11:07:47.371Z,28
2016-08-05T11:08:47.378Z,28
2016-08-05T11:09:47.395Z,24
2016-08-05T11:10:47.394Z,28
2016-08-05T11:12:47.437Z,28
2016-08-05T11:13:47.408Z,28
2016-08-05T11:14:47.418Z,28
2016-08-05T11:15:47.455Z,24
2016-08-05T11:16:47.431Z,24
2016-08-05T11:17:47.442Z,28
2016-08-05T11:18:47.470Z,28
2016-08-05T11:19:47.457Z,28
2016-08-05T11:20:47.462Z,28
2016-08-05T11:21:47.477Z,28
2016-08-05T11:22:47.490Z,28
2016-08-05T11:23:47.495Z,28
2016-08-05T11:24:47.515Z,28
2016-08-05T11:25:47.518Z,28
2016-08-05T11:27:47.524Z,28
2016-08-05T11:28:47.546Z,32
2016-08-05T11:29:47.548Z,32
2016-08-05T11:30:47.583Z,36
2016-08-05T11:31:47.589Z,36
2016-08-05T11:32:47.586Z,36
2016-08-05T11:33:47.603Z,36
2016-08-05T11:34:47.588Z,32
2016-08-05T11:35:47.620Z,32
2016-08-05T11:36:47.622Z,32
2016-08-05T11:37:47.639Z,28
2016-08-05T11:38:47.642Z,32
2016-08-05T11:39:47.650Z,32
2016-08-05T11:40:47.637Z,32
2016-08-05T11:41:47.671Z,32
2016-08-05T11:42:47.713Z,28
2016-08-05T11:43:47.681Z,28
2016-08-05T11:44:47.694Z,32
2016-08-05T11:45:47.672Z,28
2016-08-05T11:46:47.721Z,32
2016-08-05T11:47:47.702Z,28
2016-08-05T11:48:47.753Z,32
2016-08-05T11:49:47.727Z,28
2016-08-05T11:50:47.773Z,28
2016-08-05T11:51:48.425Z,24
2016-08-05T11:52:47.758Z,24
2016-08-05T11:53:47.766Z,28
2016-08-05T11:54:47.770Z,24
2016-08-05T11:55:47.783Z,28
2016-08-05T11:56:47.775Z,28
2016-08-05T11:57:47.812Z,28
2016-08-05T11:58:47.826Z,32
2016-08-05T11:59:47.839Z,32
2016-08-05T12:00:47.818Z,28
2016-08-05T12:01:47.836Z,28
2016-08-05T12:02:47.826Z,28
2016-08-05T12:03:47.901Z,28
2016-08-05T12:04:47.847Z,32
2016-08-05T12:05:47.882Z,32
2016-08-05T12:06:47.897Z,32
2016-08-05T12:07:47.888Z,32
2016-08-05T12:08:47.900Z,28
2016-08-05T12:09:47.922Z,28
2016-08-05T12:10:47.915Z,28
2016-08-05T12:11:47.958Z,28
2016-08-05T12:12:47.949Z,28
2016-08-05T12:13:47.946Z,28
2016-08-05T12:14:47.956Z,28
2016-08-05T12:15:47.951Z,24
2016-08-05T12:16:47.967Z,20
2016-08-05T12:17:47.985Z,20
2016-08-05T12:18:47.999Z,16
2016-08-05T12:19:47.992Z,16
2016-08-05T12:20:48.009Z,16
2016-08-05T12:21:48.006Z,20
2016-08-05T12:22:48.036Z,20
2016-08-05T12:23:48.038Z,20
2016-08-05T12:24:48.051Z,20
2016-08-05T12:25:48.044Z,20
2016-08-05T12:26:48.073Z,24
2016-08-05T12:27:48.052Z,24
2016-08-05T12:28:48.060Z,24
2016-08-05T12:29:48.097Z,20
2016-08-05T12:30:48.083Z,24
2016-08-05T12:31:48.102Z,24
2016-08-05T12:32:48.114Z,24
2016-08-05T12:33:48.129Z,24
2016-08-05T12:34:48.132Z,24
2016-08-05T12:35:48.149Z,24
2016-08-05T12:36:48.153Z,24
2016-08-05T12:37:48.140Z,24
2016-08-05T12:38:48.178Z,24
2016-08-05T12:39:48.161Z,24
2016-08-05T12:40:48.193Z,24
2016-08-05T12:41:48.207Z,24
2016-08-05T12:42:48.193Z,24
2016-08-05T12:43:48.214Z,24
2016-08-05T12:44:48.219Z,24
2016-08-05T12:45:48.228Z,24
2016-08-05T12:46:48.243Z,24
2016-08-05T12:47:48.265Z,24
2016-08-05T12:48:48.263Z,24
2016-08-05T12:49:48.300Z,24
2016-08-05T12:50:48.245Z,24
2016-08-05T12:51:48.281Z,24
2016-08-05T12:52:48.287Z,24
2016-08-05T12:53:48.293Z,24
2016-08-05T12:54:48.312Z,24
2016-08-05T12:55:48.305Z,20
2016-08-05T12:56:48.319Z,20
2016-08-05T12:57:48.334Z,20
2016-08-05T12:58:48.331Z,24
2016-08-05T12:59:48.372Z,24
2016-08-05T13:00:48.385Z,24
2016-08-05T13:01:48.366Z,24
2016-08-05T13:02:48.387Z,20
2016-08-05T13:03:48.434Z,20
2016-08-05T13:04:48.423Z,24
2016-08-05T13:05:48.420Z,20
2016-08-05T13:06:48.395Z,20
2016-08-05T13:07:48.429Z,20
2016-08-05T13:08:49.148Z,24
2016-08-05T13:09:48.472Z,24
2016-08-05T13:10:48.457Z,20
2016-08-05T13:11:48.464Z,20
2016-08-05T13:12:48.479Z,20
2016-08-05T13:13:48.493Z,24
2016-08-05T13:14:48.509Z,20
2016-08-05T13:15:48.507Z,24
2016-08-05T13:16:48.527Z,28
2016-08-05T13:17:48.520Z,28
2016-08-05T13:18:48.525Z,24
2016-08-05T13:19:48.525Z,24
2016-08-05T13:20:48.554Z,24
2016-08-05T13:21:48.568Z,24
2016-08-05T13:22:48.590Z,24
2016-08-05T13:23:48.575Z,24
2016-08-05T13:24:48.571Z,24
2016-08-05T13:25:48.605Z,24
2016-08-05T13:26:48.602Z,24
2016-08-05T13:27:48.601Z,28
2016-08-05T13:28:48.612Z,28
2016-08-05T13:29:48.609Z,24
2016-08-05T13:30:48.616Z,24
2016-08-05T13:31:48.648Z,24
2016-08-05T13:32:48.674Z,24
2016-08-05T13:33:48.658Z,20
2016-08-05T13:34:48.641Z,24
2016-08-05T13:35:48.674Z,24
2016-08-05T13:36:48.677Z,20
2016-08-05T13:37:48.682Z,24
2016-08-05T13:38:48.717Z,24
2016-08-05T13:39:48.689Z,20
2016-08-05T13:40:48.717Z,24
2016-08-05T13:41:48.735Z,24
2016-08-05T13:42:48.736Z,24
2016-08-05T13:43:48.755Z,24
2016-08-05T13:44:48.728Z,24
2016-08-05T13:45:48.775Z,24
2016-08-05T13:46:48.762Z,24
2016-08-05T13:47:48.775Z,24
2016-08-05T13:48:48.795Z,24
2016-08-05T13:49:48.797Z,24
2016-08-05T13:50:48.818Z,24
2016-08-05T13:51:48.818Z,24
2016-08-05T13:52:48.854Z,24
2016-08-05T13:53:48.831Z,24
2016-08-05T13:54:48.821Z,24
2016-08-05T13:55:48.844Z,24
2016-08-05T13:56:48.857Z,24
2016-08-05T13:57:48.860Z,24
2016-08-05T13:58:48.895Z,20
2016-08-05T13:59:48.868Z,20
2016-08-05T14:00:48.900Z,20
2016-08-05T14:01:48.913Z,20
2016-08-05T14:02:48.905Z,24
2016-08-05T14:03:48.905Z,24
2016-08-05T14:04:48.943Z,24
2016-08-05T14:05:48.924Z,24
2016-08-05T14:06:48.964Z,24
2016-08-05T14:07:48.956Z,24
2016-08-05T14:08:48.961Z,24
2016-08-05T14:09:48.961Z,24
2016-08-05T14:10:48.995Z,24
2016-08-05T14:11:48.987Z,24
2016-08-05T14:12:49.033Z,24
2016-08-05T14:13:49.699Z,24
2016-08-05T14:14:49.001Z,24
2016-08-05T14:15:49.026Z,28
2016-08-05T14:16:49.042Z,24
2016-08-05T14:17:49.764Z,24
2016-08-05T14:18:49.738Z,24
2016-08-05T14:19:49.080Z,24
2016-08-05T14:20:49.121Z,24
2016-08-05T14:21:49.097Z,24
2016-08-05T14:22:49.090Z,24
2016-08-05T14:23:49.100Z,24
2016-08-05T14:24:49.118Z,28
2016-08-05T14:25:49.114Z,28
2016-08-05T14:26:49.131Z,28
2016-08-05T14:27:49.186Z,28
2016-08-05T14:28:49.146Z,24
2016-08-05T14:29:49.204Z,28
2016-08-05T14:30:49.158Z,32
2016-08-05T14:31:49.198Z,28
2016-08-05T14:32:49.169Z,28
2016-08-05T14:33:49.220Z,32
2016-08-05T14:34:49.208Z,32
2016-08-05T14:35:49.228Z,28
2016-08-05T14:36:49.231Z,32
2016-08-05T14:37:49.227Z,32
2016-08-05T14:38:49.236Z,32